Time;durP1;ratioP1;P1;durP2;ratioP2;P2;SDS_P1;SDS_P2;PMS_P1;PMS_P2;Temp;Humidity;BMP_temperature;BMP_pressure;BME280_temperature;BME280_humidity;BME280_pressure;Samples;Min_cycle;Max_cycle;Signal;HPM_P1;HPM_P2
2022/09/17 00:01:14;;;;;;;1.53;1.43;;;;;;;8.69;87.88;95220.72;5022330;28;20687;-82
2022/09/17 00:03:39;;;;;;;3.07;1.83;;;;;;;8.82;88.12;95228.13;5023136;28;20187;-83
2022/09/17 00:06:07;;;;;;;3.13;2.00;;;;;;;8.76;88.49;95226.94;5031194;28;20214;-83
2022/09/17 00:08:33;;;;;;;2.20;2.00;;;;;;;8.80;88.58;95230.88;5000185;28;20230;-83
2022/09/17 00:11:06;;;;;;;2.57;1.87;;;;;;;8.82;88.93;95224.72;5012889;28;20183;-82
2022/09/17 00:13:31;;;;;;;2.00;1.70;;;;;;;8.88;88.82;95226.75;5032732;28;20191;-83
2022/09/17 00:15:57;;;;;;;1.87;1.67;;;;;;;8.84;88.53;95217.66;5024913;28;20210;-82
2022/09/17 00:18:22;;;;;;;2.43;1.80;;;;;;;8.83;88.37;95221.16;5023603;28;20218;-82
2022/09/17 00:20:47;;;;;;;2.17;1.77;;;;;;;8.76;88.80;95223.53;5023760;28;20206;-83
2022/09/17 00:23:13;;;;;;;2.33;1.67;;;;;;;8.73;89.28;95222.03;5030900;28;20178;-82
2022/09/17 00:25:41;;;;;;;4.47;1.73;;;;;;;8.78;88.84;95222.44;5029159;28;20285;-82
2022/09/17 00:28:06;;;;;;;1.80;1.70;;;;;;;8.78;89.22;95225.03;5019016;28;20183;-82
2022/09/17 00:30:31;;;;;;;3.37;1.87;;;;;;;8.83;89.10;95227.16;5005955;28;20198;-82
2022/09/17 00:32:57;;;;;;;3.10;2.00;;;;;;;8.76;89.58;95226.13;5032573;28;20190;-82
2022/09/17 00:35:23;;;;;;;4.40;1.87;;;;;;;8.90;88.56;95232.59;5018192;28;20218;-83
2022/09/17 00:37:49;;;;;;;3.57;1.80;;;;;;;8.80;89.03;95230.88;5017385;28;20222;-82
2022/09/17 00:40:14;;;;;;;2.77;1.80;;;;;;;8.80;88.96;95230.88;5010290;28;20207;-82
2022/09/17 00:42:39;;;;;;;2.03;1.73;;;;;;;8.77;88.95;95232.94;5023680;28;20233;-83
2022/09/17 00:45:05;;;;;;;2.53;2.37;;;;;;;8.79;89.36;95233.59;5009461;28;20560;-83
2022/09/17 00:47:35;;;;;;;3.33;1.80;;;;;;;8.91;88.61;95239.38;5007278;28;20275;-83
2022/09/17 00:50:12;;;;;;;2.50;1.90;;;;;;;9.01;88.41;95238.41;5021883;28;20522;-83
2022/09/17 00:52:44;;;;;;;3.03;1.80;;;;;;;8.96;88.16;95243.19;5030954;28;20656;-83
2022/09/17 00:55:19;;;;;;;2.33;1.63;;;;;;;8.88;89.15;95239.69;5016064;28;20627;-83
2022/09/17 00:57:45;;;;;;;3.57;1.87;;;;;;;8.92;88.84;95252.22;5032636;28;20209;-81
2022/09/17 01:00:13;;;;;;;2.93;1.93;;;;;;;8.90;88.20;95251.53;5022580;28;20206;-82
2022/09/17 01:02:38;;;;;;;3.43;2.00;;;;;;;8.88;89.19;95250.06;5024903;28;20183;-82
2022/09/17 01:05:05;;;;;;;2.40;1.40;;;;;;;8.92;88.71;95251.38;5010724;28;20814;-82
2022/09/17 01:07:41;;;;;;;3.23;1.63;;;;;;;8.81;88.74;95247.22;5031126;28;20333;-82
2022/09/17 01:10:28;;;;;;;2.73;1.70;;;;;;;8.92;88.60;95248.78;5033476;28;20441;-82
2022/09/17 01:13:06;;;;;;;3.03;1.63;;;;;;;8.86;88.83;95249.38;5026698;28;20179;-81
2022/09/17 01:15:46;;;;;;;3.93;1.80;;;;;;;8.93;88.48;95247.84;5006401;28;20628;-81
2022/09/17 01:18:20;;;;;;;1.70;1.40;;;;;;;8.82;88.78;95256.59;5024897;28;20193;-81
2022/09/17 01:21:10;;;;;;;4.53;1.63;;;;;;;8.91;88.16;95254.94;5027945;28;20193;-82
2022/09/17 01:24:11;;;;;;;2.60;1.47;;;;;;;8.94;87.25;95260.66;5020643;28;20282;-82
2022/09/17 01:26:53;;;;;;;3.77;2.00;;;;;;;8.85;88.16;95260.72;5022082;28;20726;-81
2022/09/17 01:29:47;;;;;;;7.57;2.13;;;;;;;8.90;88.07;95266.25;5022641;28;20245;-80
2022/09/17 01:32:23;;;;;;;3.80;1.50;;;;;;;8.80;88.32;95264.53;5023230;28;20266;-80
2022/09/17 01:35:04;;;;;;;2.33;1.60;;;;;;;8.82;87.93;95259.19;5022534;28;20187;-81
2022/09/17 01:37:33;;;;;;;4.87;2.07;;;;;;;8.85;87.73;95261.53;5030341;28;20177;-81
2022/09/17 01:40:37;;;;;;;3.37;1.63;;;;;;;8.87;88.01;95262.19;5030601;28;20584;-80
2022/09/17 01:43:07;;;;;;;4.77;1.70;;;;;;;8.89;87.57;95259.44;4983007;28;20196;-81
2022/09/17 01:45:51;;;;;;;2.73;1.70;;;;;;;8.86;87.85;95259.75;5014271;28;20234;-81
2022/09/17 01:48:19;;;;;;;3.90;1.67;;;;;;;8.81;87.91;95265.34;5009863;28;20270;-80
2022/09/17 01:50:50;;;;;;;5.90;1.80;;;;;;;8.84;87.98;95267.66;5015876;28;20183;-80
2022/09/17 01:53:16;;;;;;;2.67;1.57;;;;;;;8.72;87.54;95259.25;5021937;28;20175;-81
2022/09/17 01:55:44;;;;;;;3.43;1.73;;;;;;;8.73;88.55;95263.47;5028635;28;20725;-80
2022/09/17 01:58:14;;;;;;;2.90;1.50;;;;;;;8.70;87.97;95260.34;5025339;28;20522;-81
2022/09/17 02:00:41;;;;;;;4.13;2.03;;;;;;;8.79;88.35;95257.72;5005867;28;20182;-82
2022/09/17 02:03:16;;;;;;;2.27;1.53;;;;;;;8.82;87.93;95259.19;5007144;28;20730;-81
2022/09/17 02:05:53;;;;;;;2.37;2.00;;;;;;;8.80;87.66;95253.34;5013172;28;20210;-82
2022/09/17 02:08:24;;;;;;;2.13;1.90;;;;;;;8.83;87.69;95258.22;5012775;28;20189;-82
2022/09/17 02:11:03;;;;;;;5.10;2.00;;;;;;;8.90;87.29;95256.72;5025849;28;20182;-82
2022/09/17 02:13:37;;;;;;;6.27;1.63;;;;;;;8.90;87.82;95253.31;5026670;28;20200;-81
2022/09/17 02:16:16;;;;;;;3.80;1.80;;;;;;;8.86;86.79;95257.16;5020103;28;20202;-82
2022/09/17 02:18:57;;;;;;;2.83;1.77;;;;;;;8.70;87.79;95256.00;5003277;28;20419;-82
2022/09/17 02:21:29;;;;;;;4.13;1.63;;;;;;;8.59;88.30;95256.19;5022679;28;20186;-82
2022/09/17 02:24:09;;;;;;;5.03;1.60;;;;;;;8.58;88.46;95256.31;5028596;28;20183;-82
2022/09/17 02:26:38;;;;;;;4.40;1.77;;;;;;;8.60;88.30;95257.00;5024669;28;20210;-81
2022/09/17 02:29:10;;;;;;;4.60;1.70;;;;;;;8.60;88.49;95255.22;5001857;28;20182;-82
2022/09/17 02:31:35;;;;;;;4.90;1.37;;;;;;;8.54;88.52;95255.78;5011215;28;20279;-81
2022/09/17 02:34:02;;;;;;;1.87;1.40;;;;;;;8.54;88.84;95247.19;5006470;28;20671;-81
2022/09/17 02:36:30;;;;;;;5.87;1.70;;;;;;;8.38;88.85;95248.63;5027725;28;20213;-82
2022/09/17 02:39:00;;;;;;;3.30;1.53;;;;;;;8.49;88.50;95250.22;5029339;28;20210;-82
2022/09/17 02:41:35;;;;;;;2.87;1.40;;;;;;;8.40;88.47;95243.31;5026666;28;20178;-81
2022/09/17 02:44:09;;;;;;;4.50;1.63;;;;;;;8.33;88.59;95235.28;5023035;28;20182;-82
2022/09/17 02:46:53;;;;;;;4.13;1.30;;;;;;;8.30;88.64;95251.06;5021741;28;20296;-81
2022/09/17 02:49:31;;;;;;;6.10;1.73;;;;;;;8.24;88.10;95246.47;5018082;28;20200;-82
2022/09/17 02:52:03;;;;;;;5.53;1.33;;;;;;;8.26;88.03;95243.72;5007798;28;20183;-81
2022/09/17 02:54:36;;;;;;;3.53;1.67;;;;;;;8.17;88.10;95246.19;5012568;28;20189;-82
2022/09/17 02:57:10;;;;;;;2.73;1.20;;;;;;;8.12;88.58;95247.56;5029121;28;20240;-82
2022/09/17 02:59:54;;;;;;;4.73;1.63;;;;;;;8.09;88.96;95248.66;5025725;28;20225;-81
2022/09/17 03:02:25;;;;;;;4.30;1.40;;;;;;;8.05;88.64;95244.75;5024650;28;20187;-81
2022/09/17 03:04:51;;;;;;;6.10;1.30;;;;;;;8.12;88.27;95242.38;5018564;28;20317;-82
2022/09/17 03:07:18;;;;;;;3.80;1.40;;;;;;;8.06;88.41;95246.38;5016279;28;20278;-82
2022/09/17 03:09:44;;;;;;;7.23;1.63;;;;;;;8.10;87.99;95247.72;5016630;28;20548;-81
2022/09/17 03:12:10;;;;;;;4.50;1.40;;;;;;;8.09;87.25;95246.06;5028612;28;20183;-81
2022/09/17 03:14:35;;;;;;;4.27;1.27;;;;;;;8.11;87.53;95249.34;5008450;28;20194;-83
2022/09/17 03:17:01;;;;;;;4.83;1.50;;;;;;;8.01;87.36;95251.13;5005779;28;20202;-81
2022/09/17 03:19:26;;;;;;;6.13;1.40;;;;;;;8.06;87.56;95250.72;5020625;28;20547;-82
2022/09/17 03:21:52;;;;;;;4.40;1.30;;;;;;;8.07;87.38;95253.16;4999510;28;20249;-81
2022/09/17 03:24:17;;;;;;;8.17;2.07;;;;;;;8.02;87.69;95250.16;5016336;28;20205;-81
2022/09/17 03:26:42;;;;;;;5.50;1.43;;;;;;;8.02;88.30;95255.34;5019364;28;20199;-82
2022/09/17 03:29:08;;;;;;;6.93;1.50;;;;;;;8.12;87.57;95258.72;5022667;28;20187;-83
2022/09/17 03:31:33;;;;;;;7.63;2.10;;;;;;;8.07;87.81;95260.94;5008422;28;20190;-81
2022/09/17 03:33:58;;;;;;;9.23;1.70;;;;;;;8.11;87.67;95256.28;5030942;28;20187;-81
2022/09/17 03:36:24;;;;;;;7.03;2.03;;;;;;;8.05;87.06;95260.25;5009310;28;20336;-82
2022/09/17 03:38:56;;;;;;;6.60;1.83;;;;;;;8.11;87.06;95261.44;5020536;28;20291;-81
2022/09/17 03:41:22;;;;;;;5.07;1.70;;;;;;;8.11;87.05;95259.69;5002529;28;20659;-81
2022/09/17 03:43:47;;;;;;;3.33;1.30;;;;;;;8.14;87.04;95267.19;5023578;28;20270;-81
2022/09/17 03:46:13;;;;;;;4.93;1.23;;;;;;;8.14;86.90;95266.38;5021591;28;20232;-81
2022/09/17 03:48:38;;;;;;;6.63;1.70;;;;;;;8.07;87.02;95257.53;5018134;28;20210;-82
2022/09/17 03:51:04;;;;;;;4.87;1.70;;;;;;;7.98;87.89;95266.94;4999654;28;20617;-82
2022/09/17 03:53:30;;;;;;;4.03;2.00;;;;;;;8.11;87.34;95261.44;5027470;28;20640;-81
2022/09/17 03:55:58;;;;;;;5.23;2.00;;;;;;;8.26;86.44;95269.59;5008198;28;20217;-81
2022/09/17 03:58:23;;;;;;;4.07;1.80;;;;;;;8.15;87.37;95262.81;5026282;28;20226;-81
2022/09/17 04:00:52;;;;;;;5.47;2.00;;;;;;;8.06;87.12;95261.88;5006195;28;20525;-81
2022/09/17 04:03:17;;;;;;;7.17;2.10;;;;;;;8.05;87.63;95273.19;5003036;28;20286;-80
2022/09/17 04:05:43;;;;;;;5.13;1.97;;;;;;;7.97;87.79;95267.06;5014952;28;20290;-81
2022/09/17 04:08:08;;;;;;;5.03;1.90;;;;;;;7.93;88.04;95274.28;5032742;28;20330;-81
2022/09/17 04:10:33;;;;;;;4.67;2.20;;;;;;;7.97;88.08;95274.84;5029269;28;20383;-81
2022/09/17 04:12:58;;;;;;;8.03;3.33;;;;;;;7.91;88.18;95276.19;5025702;28;20237;-82
2022/09/17 04:15:24;;;;;;;5.03;1.77;;;;;;;8.02;88.75;95278.63;5025566;28;20206;-82
2022/09/17 04:17:49;;;;;;;5.77;1.90;;;;;;;7.98;89.06;95276.47;5029452;28;20191;-82
2022/09/17 04:20:14;;;;;;;4.47;2.00;;;;;;;8.02;88.85;95277.81;5001735;28;20207;-82
2022/09/17 04:22:40;;;;;;;7.37;2.40;;;;;;;8.06;88.92;95268.84;5022979;28;20196;-81
2022/09/17 04:25:06;;;;;;;2.90;1.83;;;;;;;8.12;88.37;95271.66;5032285;28;20195;-82
2022/09/17 04:27:31;;;;;;;2.57;1.50;;;;;;;8.10;88.21;95263.22;5037832;28;20178;-81
2022/09/17 04:29:56;;;;;;;9.07;2.60;;;;;;;8.10;88.64;95259.81;5041381;28;20183;-81
2022/09/17 04:32:21;;;;;;;6.80;1.90;;;;;;;8.13;88.33;95264.75;5021209;28;20195;-82
2022/09/17 04:34:47;;;;;;;4.80;2.20;;;;;;;7.94;88.53;95273.31;5035012;28;20183;-82
2022/09/17 04:37:12;;;;;;;4.73;2.37;;;;;;;7.97;89.14;95277.41;5029315;28;20210;-82
2022/09/17 04:39:37;;;;;;;5.40;2.07;;;;;;;7.98;88.51;95279.88;5048905;28;20207;-82
2022/09/17 04:42:03;;;;;;;6.30;2.13;;;;;;;8.00;88.95;95290.88;5045042;28;20182;-82
2022/09/17 04:44:28;;;;;;;8.30;2.43;;;;;;;7.96;89.44;95289.53;5047691;28;20194;-81
2022/09/17 04:46:53;;;;;;;4.70;2.03;;;;;;;7.94;89.25;95291.41;5003437;28;20206;-82
2022/09/17 04:49:19;;;;;;;5.70;2.70;;;;;;;7.99;89.39;95293.59;5019057;28;20206;-81
2022/09/17 04:51:44;;;;;;;2.97;2.20;;;;;;;8.06;89.46;95290.34;5042625;28;20261;-81
2022/09/17 04:54:09;;;;;;;5.00;2.30;;;;;;;8.02;89.46;95304.47;5032333;28;20202;-82
2022/09/17 04:56:35;;;;;;;5.30;2.50;;;;;;;8.06;89.13;95307.63;5025332;28;20251;-82
2022/09/17 04:59:01;;;;;;;5.50;2.27;;;;;;;7.97;89.63;95306.69;5015407;28;20583;-82
2022/09/17 05:01:29;;;;;;;3.90;2.40;;;;;;;7.97;89.44;95304.09;5014500;28;20178;-80
2022/09/17 05:03:54;;;;;;;9.20;2.53;;;;;;;8.03;89.07;95305.28;5017974;28;20194;-82
2022/09/17 05:06:19;;;;;;;7.47;2.70;;;;;;;7.94;88.90;95302.56;5028876;28;20582;-83
2022/09/17 05:08:45;;;;;;;5.87;3.00;;;;;;;8.01;88.89;95320.94;5009788;28;21075;-79
2022/09/17 05:11:10;;;;;;;4.00;2.30;;;;;;;8.09;88.23;95315.91;5001637;28;20229;-80
2022/09/17 05:13:35;;;;;;;5.70;2.77;;;;;;;8.07;87.97;95317.00;5022044;28;20189;-81
2022/09/17 05:16:01;;;;;;;6.20;3.03;;;;;;;8.06;88.13;95313.59;5020048;28;20691;-81
2022/09/17 05:18:26;;;;;;;8.80;2.60;;;;;;;8.11;88.08;95323.53;5016377;28;20203;-81
2022/09/17 05:20:51;;;;;;;5.57;2.73;;;;;;;8.06;88.99;95325.72;4997237;28;20218;-82
2022/09/17 05:23:17;;;;;;;7.77;3.00;;;;;;;8.05;89.30;95327.50;5016289;28;20265;-82
2022/09/17 05:25:42;;;;;;;10.33;3.10;;;;;;;8.05;88.99;95330.09;5010466;28;20256;-81
2022/09/17 05:28:07;;;;;;;8.60;2.80;;;;;;;8.11;89.38;95320.94;5037154;28;20175;-81
2022/09/17 05:30:33;;;;;;;3.93;2.87;;;;;;;8.22;88.60;95326.78;5023837;28;20249;-82
2022/09/17 05:33:04;;;;;;;7.03;2.60;;;;;;;8.05;89.33;95316.34;5042504;28;20645;-81
2022/09/17 05:35:30;;;;;;;5.63;2.93;;;;;;;8.27;88.72;95322.97;5021613;28;20210;-81
2022/09/17 05:38:06;;;;;;;7.10;2.60;;;;;;;8.36;87.88;95317.81;5011737;28;20189;-81
2022/09/17 05:40:31;;;;;;;6.63;2.90;;;;;;;8.25;87.97;95320.53;5002618;28;20183;-80
2022/09/17 05:43:01;;;;;;;3.77;2.90;;;;;;;8.41;87.68;95322.56;5006848;28;20241;-80
2022/09/17 05:45:26;;;;;;;4.07;3.10;;;;;;;8.42;87.64;95331.97;5002757;28;20230;-80
2022/09/17 05:47:56;;;;;;;7.33;2.77;;;;;;;8.39;86.97;95325.31;5016686;28;20282;-81
2022/09/17 05:50:22;;;;;;;7.00;3.00;;;;;;;8.33;86.86;95328.41;5014302;28;20186;-80
2022/09/17 05:52:47;;;;;;;7.13;3.40;;;;;;;8.28;87.60;95329.78;5030379;28;20182;-80
2022/09/17 05:55:13;;;;;;;4.23;2.50;;;;;;;8.46;86.85;95325.53;5009229;28;20264;-80
2022/09/17 05:57:38;;;;;;;5.57;2.63;;;;;;;8.31;86.62;95337.28;5022786;28;20648;-80
2022/09/17 06:00:04;;;;;;;6.77;2.53;;;;;;;8.37;86.18;95345.31;5021336;28;20203;-81
2022/09/17 06:02:30;;;;;;;4.77;2.60;;;;;;;8.35;86.26;95341.22;5016879;28;21020;-80
2022/09/17 06:04:59;;;;;;;3.93;2.43;;;;;;;8.36;86.20;95346.25;4996206;28;20195;-80
2022/09/17 06:07:24;;;;;;;8.90;2.73;;;;;;;8.44;85.80;95345.56;5013339;28;20187;-80
2022/09/17 06:09:50;;;;;;;6.70;2.57;;;;;;;8.19;85.84;95346.94;5000392;28;20194;-81
2022/09/17 06:12:15;;;;;;;7.17;2.40;;;;;;;8.30;85.77;95348.56;5021991;28;20195;-80
2022/09/17 06:14:40;;;;;;;2.63;2.00;;;;;;;8.33;85.36;95350.88;5018167;28;20237;-80
2022/09/17 06:17:05;;;;;;;5.73;2.43;;;;;;;8.37;85.57;95357.44;4999384;28;20207;-80
2022/09/17 06:19:31;;;;;;;4.77;2.83;;;;;;;8.48;84.57;95357.25;5012757;28;20211;-80
2022/09/17 06:21:56;;;;;;;3.63;2.50;;;;;;;8.22;85.73;95362.19;4997125;28;20187;-80
2022/09/17 06:24:21;;;;;;;5.90;2.40;;;;;;;8.23;86.34;95362.06;4999790;28;20203;-81
2022/09/17 06:26:47;;;;;;;9.77;2.77;;;;;;;8.29;86.05;95354.69;5019906;28;20206;-81
2022/09/17 06:29:14;;;;;;;4.23;2.27;;;;;;;8.17;87.31;95364.38;5006184;28;20197;-81
2022/09/17 06:31:39;;;;;;;3.40;2.40;;;;;;;8.27;87.75;95362.59;5029060;28;20270;-80
2022/09/17 06:34:05;;;;;;;5.73;2.43;;;;;;;8.46;87.03;95367.75;5000730;28;20255;-80
2022/09/17 06:36:32;;;;;;;5.33;2.67;;;;;;;8.21;88.44;95366.53;5035386;28;20256;-80
2022/09/17 06:38:58;;;;;;;4.23;2.50;;;;;;;8.34;89.30;95370.63;5030642;28;20210;-80
2022/09/17 06:41:23;;;;;;;5.13;2.63;;;;;;;8.36;88.94;95368.72;5026455;28;20191;-81
2022/09/17 06:43:52;;;;;;;3.63;2.40;;;;;;;8.38;89.46;95370.22;5023950;28;20536;-81
2022/09/17 06:46:17;;;;;;;6.97;2.90;;;;;;;8.34;90.23;95368.84;5035918;28;20220;-81
2022/09/17 06:48:42;;;;;;;4.17;2.47;;;;;;;8.43;88.99;95375.00;5019647;28;20190;-81
2022/09/17 06:51:09;;;;;;;4.17;2.60;;;;;;;8.48;89.41;95372.78;5036358;28;20245;-80
2022/09/17 06:53:36;;;;;;;3.33;2.40;;;;;;;8.33;89.58;95381.94;5001821;28;20668;-81
2022/09/17 06:56:02;;;;;;;5.00;2.20;;;;;;;8.48;88.85;95381.41;5016366;28;20218;-81
2022/09/17 06:58:28;;;;;;;3.13;2.43;;;;;;;8.36;90.16;95379.91;5040645;28;20198;-80
2022/09/17 07:00:57;;;;;;;3.90;2.50;;;;;;;8.41;90.61;95387.25;5028327;28;20344;-80
2022/09/17 07:03:23;;;;;;;5.53;2.50;;;;;;;8.28;90.56;95386.69;5032041;28;20718;-81
2022/09/17 07:05:48;;;;;;;2.37;2.03;;;;;;;8.32;90.59;95385.47;5034213;28;20206;-80
2022/09/17 07:08:13;;;;;;;3.53;2.37;;;;;;;8.44;89.99;95385.19;5021291;28;20187;-80
2022/09/17 07:10:39;;;;;;;3.70;2.60;;;;;;;8.39;91.03;95383.97;5023052;28;20265;-80
2022/09/17 07:13:04;;;;;;;7.43;3.17;;;;;;;8.44;91.01;95386.97;5041256;28;20232;-81
2022/09/17 07:15:29;;;;;;;5.53;2.93;;;;;;;8.47;90.89;95391.88;5004128;28;20747;-81
2022/09/17 07:17:55;;;;;;;2.53;2.23;;;;;;;8.42;90.76;95383.72;5016286;28;20179;-81
2022/09/17 07:20:20;;;;;;;3.80;2.50;;;;;;;8.41;90.45;95395.03;5015641;28;20237;-80
2022/09/17 07:22:54;;;;;;;3.97;2.73;;;;;;;8.27;92.31;95396.22;5033913;28;20776;-80
2022/09/17 07:25:19;;;;;;;5.10;2.87;;;;;;;8.28;92.38;95397.03;5003567;28;20517;-81
2022/09/17 07:27:44;;;;;;;6.27;3.23;;;;;;;8.39;91.87;95402.09;5023683;28;20186;-80
2022/09/17 07:30:11;;;;;;;4.73;3.67;;;;;;;8.59;91.15;95401.13;5027396;28;20186;-81
2022/09/17 07:32:37;;;;;;;6.60;3.60;;;;;;;8.60;90.74;95400.16;5033657;28;20195;-81
2022/09/17 07:35:02;;;;;;;5.77;3.73;;;;;;;8.96;90.17;95397.75;5032535;28;20256;-81
2022/09/17 07:37:28;;;;;;;8.37;3.80;;;;;;;8.93;89.49;95403.25;5030767;28;20187;-81
2022/09/17 07:39:54;;;;;;;5.67;3.37;;;;;;;9.04;88.55;95410.81;5043848;28;20260;-81
2022/09/17 07:42:19;;;;;;;8.53;3.87;;;;;;;8.99;88.01;95400.06;5025171;28;20182;-81
2022/09/17 07:44:45;;;;;;;7.67;3.13;;;;;;;9.18;88.58;95399.97;5005608;28;20179;-80
2022/09/17 07:47:11;;;;;;;11.10;3.40;;;;;;;9.28;88.16;95407.75;5016766;28;20249;-81
2022/09/17 07:49:36;;;;;;;7.80;3.17;;;;;;;9.46;87.15;95410.41;5014510;28;20210;-81
2022/09/17 07:52:05;;;;;;;7.23;3.40;;;;;;;9.85;85.70;95406.59;5006968;28;20197;-81
2022/09/17 07:54:31;;;;;;;9.07;3.30;;;;;;;9.69;84.87;95411.63;5020694;28;20264;-81
2022/09/17 07:56:56;;;;;;;8.63;3.40;;;;;;;9.85;85.28;95406.59;5023527;28;20215;-81
2022/09/17 07:59:21;;;;;;;6.80;4.33;;;;;;;9.76;85.25;95412.69;5027228;28;20215;-81
2022/09/17 08:01:47;;;;;;;7.33;4.53;;;;;;;9.87;84.80;95414.25;5034785;28;20194;-81
2022/09/17 08:04:13;;;;;;;8.50;3.00;;;;;;;9.87;84.46;95425.44;5031670;28;20198;-81
2022/09/17 08:06:39;;;;;;;6.93;3.10;;;;;;;9.82;84.66;95426.84;5008286;28;20286;-81
2022/09/17 08:09:06;;;;;;;7.33;3.40;;;;;;;9.73;83.74;95431.13;5010855;28;20171;-81
2022/09/17 08:11:31;;;;;;;7.53;3.00;;;;;;;9.88;82.55;95426.25;5030241;28;20193;-79
2022/09/17 08:13:56;;;;;;;5.37;3.10;;;;;;;9.83;83.78;95428.47;5022705;28;20179;-81
2022/09/17 08:16:23;;;;;;;6.37;3.10;;;;;;;10.34;81.25;95443.47;5027559;28;20210;-81
2022/09/17 08:18:48;;;;;;;6.80;3.67;;;;;;;10.86;80.36;95443.53;5018118;28;20297;-81
2022/09/17 08:21:17;;;;;;;10.47;3.60;;;;;;;10.99;78.85;95443.94;5016824;28;20227;-81
2022/09/17 08:23:43;;;;;;;9.60;3.17;;;;;;;10.98;78.27;95442.31;5030800;28;20182;-81
2022/09/17 08:26:13;;;;;;;7.60;3.20;;;;;;;10.71;78.62;95445.06;5026496;28;20194;-81
2022/09/17 08:28:38;;;;;;;10.73;4.10;;;;;;;10.89;78.01;95435.44;5010259;28;20261;-81
2022/09/17 08:31:07;;;;;;;7.60;4.23;;;;;;;11.29;77.74;95440.06;5025394;28;20198;-80
2022/09/17 08:33:34;;;;;;;6.87;3.00;;;;;;;11.27;76.91;95436.81;5027313;28;20187;-81
2022/09/17 08:35:59;;;;;;;11.33;3.50;;;;;;;11.20;77.81;95450.56;5029635;28;20203;-79
2022/09/17 08:38:28;;;;;;;10.67;3.27;;;;;;;11.34;76.92;95440.44;5031828;28;20179;-79
2022/09/17 08:41:16;;;;;;;9.07;3.00;;;;;;;11.70;76.32;95442.84;5032624;28;20199;-78
2022/09/17 08:44:03;;;;;;;9.10;2.90;;;;;;;11.27;75.68;95434.22;5004514;28;20249;-80
2022/09/17 08:46:49;;;;;;;11.43;2.70;;;;;;;11.90;74.38;95451.25;5027367;28;20586;-81
2022/09/17 08:49:29;;;;;;;17.70;3.53;;;;;;;11.97;73.59;95454.03;5027086;28;20183;-80
2022/09/17 08:52:23;;;;;;;8.10;2.93;;;;;;;12.11;73.33;95453.44;5017449;28;20942;-81
2022/09/17 08:55:20;;;;;;;10.90;3.07;;;;;;;11.64;72.28;95453.88;5023397;28;20198;-80
2022/09/17 08:58:04;;;;;;;7.53;3.00;;;;;;;11.43;73.71;95451.69;4982706;28;20906;-81
2022/09/17 09:00:37;;;;;;;3.67;2.13;;;;;;;11.44;73.77;95452.50;5032150;28;20260;-81
2022/09/17 09:03:21;;;;;;;7.23;3.20;;;;;;;11.53;73.40;95449.78;5032410;28;20578;-81
2022/09/17 09:05:51;;;;;;;8.40;3.13;;;;;;;11.31;75.16;95447.72;5014425;28;20289;-81
2022/09/17 09:08:35;;;;;;;9.67;2.60;;;;;;;11.47;74.71;95458.19;5027761;28;20194;-80
2022/09/17 09:11:06;;;;;;;5.33;2.50;;;;;;;11.03;74.94;95460.03;5027516;28;20178;-80
2022/09/17 09:13:41;;;;;;;4.27;2.07;;;;;;;11.06;75.13;95463.16;5014277;28;20191;-81
2022/09/17 09:16:16;;;;;;;6.90;2.60;;;;;;;10.80;75.99;95459.72;5027811;28;20211;-80
2022/09/17 09:18:41;;;;;;;10.20;3.00;;;;;;;10.92;75.97;95462.91;5031315;28;21005;-81
2022/09/17 09:21:49;;;;;;;6.53;2.60;;;;;;;10.83;76.73;95466.41;5015431;28;20190;-81
2022/09/17 09:24:25;;;;;;;5.43;2.50;;;;;;;11.32;74.69;95478.75;5018352;28;20759;-81
2022/09/17 09:27:26;;;;;;;6.10;2.50;;;;;;;11.43;74.10;95462.09;5010519;28;20233;-81
2022/09/17 09:30:03;;;;;;;5.27;2.80;;;;;;;10.80;74.97;95467.53;5013525;28;20188;-81
2022/09/17 09:32:47;;;;;;;5.80;2.87;;;;;;;11.41;74.42;95464.03;5034884;28;20189;-80
2022/09/17 09:35:33;;;;;;;8.43;2.80;;;;;;;11.53;73.82;95465.38;5031386;28;20214;-80
2022/09/17 09:38:08;;;;;;;9.10;2.90;;;;;;;11.36;73.66;95463.66;5045112;28;20186;-80
2022/09/17 09:41:01;;;;;;;5.43;2.37;;;;;;;11.64;71.30;95462.50;5048959;28;20225;-80
2022/09/17 09:43:46;;;;;;;9.77;2.60;;;;;;;11.40;73.12;95464.19;5028676;28;20610;-77
2022/09/17 09:46:51;;;;;;;4.13;2.43;;;;;;;11.66;71.73;95457.16;5025856;28;20241;-82
2022/09/17 09:49:31;;;;;;;4.47;2.70;;;;;;;11.47;71.84;95453.00;5024066;28;20175;-82
2022/09/17 09:52:10;;;;;;;6.43;2.97;;;;;;;11.54;71.64;95459.19;5036934;28;20210;-81
2022/09/17 09:55:02;;;;;;;7.20;2.80;;;;;;;11.62;71.08;95455.81;5027592;28;20221;-81
2022/09/17 09:57:38;;;;;;;4.93;2.10;;;;;;;11.53;71.80;95457.56;5028841;28;20202;-81
2022/09/17 10:00:25;;;;;;;5.77;3.13;;;;;;;11.73;69.91;95457.31;5025966;28;20221;-81
2022/09/17 10:02:55;;;;;;;5.23;2.20;;;;;;;11.66;70.42;95458.91;5032270;28;20186;-81
2022/09/17 10:05:21;;;;;;;4.47;2.20;;;;;;;11.72;69.51;95456.50;5000519;28;20668;-81
2022/09/17 10:07:46;;;;;;;6.53;2.43;;;;;;;11.64;69.54;95452.09;5022142;28;20233;-81
2022/09/17 10:10:11;;;;;;;4.40;2.10;;;;;;;11.93;69.13;95458.75;5013442;28;20190;-81
2022/09/17 10:12:37;;;;;;;4.80;2.13;;;;;;;12.46;67.06;95454.97;5047523;28;20182;-81
2022/09/17 10:15:26;;;;;;;9.20;2.47;;;;;;;12.65;65.94;95454.66;5054380;28;20258;-81
2022/09/17 10:18:22;;;;;;;7.37;1.90;;;;;;;12.84;65.26;95470.94;5038985;28;20182;-82
2022/09/17 10:20:58;;;;;;;6.40;2.47;;;;;;;12.83;65.67;95464.09;5012003;28;20204;-82
2022/09/17 10:23:27;;;;;;;6.10;1.90;;;;;;;12.83;63.68;95464.91;5006747;28;20228;-82
2022/09/17 10:25:54;;;;;;;4.97;2.30;;;;;;;13.12;63.66;95467.00;4988018;28;20220;-82
2022/09/17 10:28:35;;;;;;;7.00;2.13;;;;;;;13.21;62.69;95460.00;4968462;28;20184;-82
2022/09/17 10:31:08;;;;;;;4.47;1.87;;;;;;;12.92;63.68;95463.13;4994403;28;20201;-82
2022/09/17 10:33:35;;;;;;;10.43;2.33;;;;;;;13.25;63.60;95476.94;4988611;28;20187;-82
2022/09/17 10:36:11;;;;;;;5.60;2.13;;;;;;;13.15;64.18;95471.88;4982790;28;20202;-82
2022/09/17 10:38:38;;;;;;;6.73;2.30;;;;;;;13.26;63.22;95470.75;4978860;28;20268;-82
2022/09/17 10:41:12;;;;;;;7.23;2.40;;;;;;;13.46;63.10;95473.81;4987169;28;20250;-81
2022/09/17 10:43:37;;;;;;;6.10;2.80;;;;;;;13.13;64.00;95471.22;5003497;28;20200;-81
2022/09/17 10:46:02;;;;;;;4.87;1.90;;;;;;;13.26;63.61;95478.59;4975501;28;20226;-82
2022/09/17 10:48:35;;;;;;;4.17;1.70;;;;;;;12.73;63.11;95469.47;4976262;28;20196;-81
2022/09/17 10:51:02;;;;;;;4.57;1.90;;;;;;;12.45;64.10;95467.13;4963669;28;20206;-81
2022/09/17 10:53:27;;;;;;;5.10;2.57;;;;;;;12.32;63.87;95458.19;4988583;28;20195;-81
2022/09/17 10:56:05;;;;;;;5.37;2.13;;;;;;;12.52;64.61;95458.69;4967989;28;20219;-82
2022/09/17 10:58:42;;;;;;;8.27;2.40;;;;;;;12.39;64.65;95449.56;5019141;28;20194;-81
2022/09/17 11:01:21;;;;;;;5.50;2.27;;;;;;;12.47;64.03;95440.97;5026589;28;20187;-81
2022/09/17 11:04:12;;;;;;;4.20;2.20;;;;;;;12.31;65.56;95441.75;5014986;28;20190;-80
2022/09/17 11:06:47;;;;;;;4.43;2.03;;;;;;;12.27;64.48;95439.63;5027720;28;20199;-80
2022/09/17 11:09:37;;;;;;;3.93;1.93;;;;;;;12.34;64.33;95438.00;5036645;28;20202;-79
2022/09/17 11:12:23;;;;;;;2.90;1.50;;;;;;;12.47;62.81;95425.34;5030205;28;20183;-80
2022/09/17 11:15:06;;;;;;;4.63;1.60;;;;;;;12.73;62.10;95436.41;5000233;28;20660;-80
2022/09/17 11:17:51;;;;;;;5.07;1.67;;;;;;;12.71;61.80;95422.72;5035345;28;20194;-81
2022/09/17 11:20:43;;;;;;;6.33;1.43;;;;;;;12.71;62.08;95427.91;5032487;28;20206;-80
2022/09/17 11:23:36;;;;;;;3.67;1.60;;;;;;;13.11;61.26;95418.44;5033920;28;20241;-81
2022/09/17 11:26:30;;;;;;;3.97;1.57;;;;;;;13.14;59.73;95418.09;5024993;28;20221;-80
2022/09/17 11:29:24;;;;;;;4.63;1.60;;;;;;;12.72;60.87;95424.38;5018174;28;20195;-80
2022/09/17 11:31:56;;;;;;;4.30;1.60;;;;;;;13.43;59.31;95428.03;5021219;28;20191;-80
2022/09/17 11:34:29;;;;;;;4.27;2.10;;;;;;;13.52;57.29;95423.59;5016839;28;20191;-80
2022/09/17 11:37:21;;;;;;;4.53;1.87;;;;;;;13.45;57.51;95431.28;5020684;28;20326;-81
2022/09/17 11:39:59;;;;;;;2.87;1.30;;;;;;;13.51;57.78;95424.53;5031144;28;20257;-80
2022/09/17 11:42:30;;;;;;;4.17;1.63;;;;;;;13.47;58.53;95418.06;5022809;28;20202;-81
2022/09/17 11:45:20;;;;;;;5.73;1.73;;;;;;;13.55;58.28;95410.19;5005678;28;20187;-81
2022/09/17 11:47:51;;;;;;;5.20;1.50;;;;;;;14.01;57.10;95410.31;5035090;28;20194;-80
2022/09/17 11:50:28;;;;;;;5.00;1.53;;;;;;;13.92;57.29;95406.09;5021443;28;20198;-80
2022/09/17 11:53:09;;;;;;;4.07;1.50;;;;;;;14.05;58.08;95416.81;5004984;28;20245;-80
2022/09/17 11:55:48;;;;;;;4.25;1.77;;;;;;;13.86;57.42;95416.25;5015659;28;20216;-81
2022/09/17 11:58:32;;;;;;;4.77;1.60;;;;;;;13.86;57.97;95423.25;5020987;28;20186;-81